UAL2236 KIAH-KMAF
Flight info
| Callsign | UAL2236 |
|---|---|
| Flight time | 1h 5m |
| Altitude | 30000 |
| Route | PITZZ5 CRGER JCT SJT MAF |
| Aircraft | B738/M-SDE2E3FGHIRWXY/LB1 |
Departure
| Time | 2026-04-24 13:51 |
|---|---|
| Airport | George Bush Intercontinental Airport (KIAH) |
Arrival
| Time | 2026-04-24 14:57 |
|---|---|
| Airport | Midland International Air and Space Port (KMAF) |
| Time | Latitude | Longitude | Altitude | Speed | Heading |
|---|---|---|---|---|---|
| 2026-04-24 13:32 | 29.98438 | -95.33470 | 106 ft | 0 kts | 327° |
| 2026-04-24 13:40 | 29.98434 | -95.33467 | 106 ft | 4 kts | 327° |
| 2026-04-24 13:41 | 29.98413 | -95.33450 | 106 ft | 4 kts | 307° |
| 2026-04-24 13:41 | 29.98406 | -95.33434 | 97 ft | 4 kts | 264° |
| 2026-04-24 13:41 | 29.98412 | -95.33408 | 105 ft | 4 kts | 218° |
| 2026-04-24 13:41 | 29.98435 | -95.33401 | 106 ft | 4 kts | 180° |
| 2026-04-24 13:42 | 29.98447 | -95.33401 | 106 ft | 4 kts | 186° |
| 2026-04-24 13:42 | 29.98416 | -95.33400 | 105 ft | 4 kts | 176° |
| 2026-04-24 13:42 | 29.98393 | -95.33399 | 106 ft | 4 kts | 178° |
| 2026-04-24 13:42 | 29.98370 | -95.33399 | 106 ft | 1 kts | 181° |
| 2026-04-24 13:45 | 29.98369 | -95.33399 | 106 ft | 1 kts | 181° |
| 2026-04-24 13:45 | 29.98348 | -95.33399 | 106 ft | 6 kts | 181° |
| 2026-04-24 13:45 | 29.98299 | -95.33416 | 106 ft | 8 kts | 235° |
| 2026-04-24 13:45 | 29.98299 | -95.33479 | 106 ft | 9 kts | 273° |
| 2026-04-24 13:46 | 29.98304 | -95.33573 | 106 ft | 16 kts | 275° |
| 2026-04-24 13:46 | 29.98316 | -95.33732 | 106 ft | 22 kts | 273° |
| 2026-04-24 13:46 | 29.98316 | -95.33912 | 106 ft | 22 kts | 269° |
| 2026-04-24 13:46 | 29.98362 | -95.34072 | 106 ft | 22 kts | 297° |
| 2026-04-24 13:47 | 29.98376 | -95.34243 | 106 ft | 21 kts | 269° |
| 2026-04-24 13:47 | 29.98376 | -95.34406 | 106 ft | 20 kts | 270° |
| 2026-04-24 13:47 | 29.98377 | -95.34567 | 106 ft | 20 kts | 270° |
| 2026-04-24 13:47 | 29.98378 | -95.34723 | 106 ft | 19 kts | 270° |
| 2026-04-24 13:48 | 29.98379 | -95.34874 | 106 ft | 19 kts | 270° |
| 2026-04-24 13:48 | 29.98380 | -95.35020 | 106 ft | 18 kts | 270° |
| 2026-04-24 13:48 | 29.98380 | -95.35161 | 106 ft | 17 kts | 272° |
| 2026-04-24 13:48 | 29.98451 | -95.35244 | 106 ft | 15 kts | 332° |
| 2026-04-24 13:49 | 29.98544 | -95.35301 | 106 ft | 17 kts | 332° |
| 2026-04-24 13:49 | 29.98671 | -95.35379 | 106 ft | 23 kts | 332° |
| 2026-04-24 13:49 | 29.98815 | -95.35468 | 106 ft | 23 kts | 332° |
| 2026-04-24 13:49 | 29.98884 | -95.35550 | 106 ft | 13 kts | 259° |
| 2026-04-24 13:50 | 29.98844 | -95.35642 | 106 ft | 13 kts | 242° |
| 2026-04-24 13:50 | 29.98802 | -95.35730 | 107 ft | 12 kts | 238° |
| 2026-04-24 13:50 | 29.98727 | -95.35748 | 108 ft | 15 kts | 154° |
| 2026-04-24 13:50 | 29.98501 | -95.35611 | 107 ft | 69 kts | 152° |
| 2026-04-24 13:51 | 29.97879 | -95.35229 | 108 ft | 130 kts | 152° |
| 2026-04-24 13:51 | 29.96956 | -95.34676 | 360 ft | 156 kts | 153° |
| 2026-04-24 13:51 | 29.95999 | -95.34034 | 960 ft | 159 kts | 147° |
| 2026-04-24 13:51 | 29.95173 | -95.33515 | 1344 ft | 168 kts | 176° |
| 2026-04-24 13:52 | 29.94289 | -95.33730 | 1560 ft | 183 kts | 212° |
| 2026-04-24 13:52 | 29.93705 | -95.34460 | 1725 ft | 198 kts | 235° |
| 2026-04-24 13:52 | 29.92932 | -95.35884 | 1868 ft | 220 kts | 234° |
| 2026-04-24 13:52 | 29.92036 | -95.37416 | 2131 ft | 236 kts | 233° |
| 2026-04-24 13:53 | 29.91074 | -95.38987 | 2851 ft | 241 kts | 233° |
| 2026-04-24 13:53 | 29.90164 | -95.40442 | 3440 ft | 249 kts | 233° |
| 2026-04-24 13:53 | 29.89626 | -95.41294 | 3883 ft | 245 kts | 233° |
| 2026-04-24 13:53 | 29.88604 | -95.42909 | 4505 ft | 253 kts | 233° |
| 2026-04-24 13:54 | 29.87662 | -95.44627 | 5276 ft | 256 kts | 239° |
| 2026-04-24 13:54 | 29.86773 | -95.46431 | 6050 ft | 261 kts | 240° |
| 2026-04-24 13:54 | 29.85875 | -95.48252 | 6858 ft | 263 kts | 240° |
| 2026-04-24 13:54 | 29.84973 | -95.50093 | 7562 ft | 266 kts | 242° |
| 2026-04-24 13:55 | 29.84070 | -95.51970 | 8254 ft | 270 kts | 242° |
| 2026-04-24 13:55 | 29.83185 | -95.53873 | 8932 ft | 275 kts | 248° |
| 2026-04-24 13:55 | 29.82858 | -95.56028 | 9678 ft | 278 kts | 274° |
| 2026-04-24 13:55 | 29.83314 | -95.58195 | 10362 ft | 285 kts | 292° |
| 2026-04-24 13:56 | 29.84247 | -95.60316 | 10576 ft | 310 kts | 297° |
| 2026-04-24 13:56 | 29.85365 | -95.62549 | 10757 ft | 333 kts | 299° |
| 2026-04-24 13:56 | 29.86581 | -95.64918 | 10894 ft | 353 kts | 299° |
| 2026-04-24 13:56 | 29.87858 | -95.67416 | 11050 ft | 371 kts | 299° |
| 2026-04-24 13:57 | 29.89182 | -95.70031 | 11436 ft | 382 kts | 298° |
| 2026-04-24 13:57 | 29.90519 | -95.72698 | 12070 ft | 386 kts | 298° |
| 2026-04-24 13:57 | 29.91858 | -95.75390 | 12767 ft | 388 kts | 298° |
| 2026-04-24 13:57 | 29.93204 | -95.78109 | 13430 ft | 392 kts | 298° |
| 2026-04-24 13:58 | 29.94554 | -95.80845 | 14059 ft | 394 kts | 298° |
| 2026-04-24 13:58 | 29.95608 | -95.82986 | 14557 ft | 394 kts | 298° |
| 2026-04-24 13:58 | 29.96851 | -95.85514 | 15129 ft | 395 kts | 298° |
| 2026-04-24 13:58 | 29.98208 | -95.88273 | 15710 ft | 396 kts | 298° |
| 2026-04-24 13:59 | 29.99572 | -95.91051 | 16217 ft | 401 kts | 298° |
| 2026-04-24 13:59 | 30.00951 | -95.93860 | 16724 ft | 404 kts | 297° |
| 2026-04-24 13:59 | 30.02336 | -95.96682 | 17283 ft | 405 kts | 297° |
| 2026-04-24 13:59 | 30.03729 | -95.99521 | 17835 ft | 406 kts | 297° |
| 2026-04-24 14:00 | 30.04649 | -96.01398 | 18177 ft | 407 kts | 297° |
| 2026-04-24 14:00 | 30.06512 | -96.05224 | 18779 ft | 409 kts | 295° |
| 2026-04-24 14:00 | 30.07497 | -96.08295 | 19163 ft | 410 kts | 279° |
| 2026-04-24 14:00 | 30.07912 | -96.11547 | 19612 ft | 410 kts | 278° |
| 2026-04-24 14:01 | 30.08375 | -96.14804 | 20082 ft | 412 kts | 279° |
| 2026-04-24 14:01 | 30.08876 | -96.18072 | 20536 ft | 415 kts | 279° |
| 2026-04-24 14:01 | 30.09389 | -96.21363 | 20964 ft | 417 kts | 279° |
| 2026-04-24 14:01 | 30.09903 | -96.24667 | 21371 ft | 420 kts | 279° |
| 2026-04-24 14:02 | 30.10417 | -96.27996 | 21797 ft | 422 kts | 279° |
| 2026-04-24 14:02 | 30.10932 | -96.31340 | 22217 ft | 424 kts | 279° |
| 2026-04-24 14:02 | 30.11446 | -96.34695 | 22631 ft | 426 kts | 279° |
| 2026-04-24 14:02 | 30.11963 | -96.38072 | 23022 ft | 428 kts | 279° |
| 2026-04-24 14:03 | 30.12482 | -96.41466 | 23385 ft | 430 kts | 279° |
| 2026-04-24 14:03 | 30.13001 | -96.44867 | 23716 ft | 431 kts | 279° |
| 2026-04-24 14:03 | 30.13520 | -96.48278 | 24078 ft | 431 kts | 280° |
| 2026-04-24 14:03 | 30.14039 | -96.51688 | 24461 ft | 430 kts | 280° |
| 2026-04-24 14:04 | 30.14556 | -96.55094 | 24845 ft | 430 kts | 280° |
| 2026-04-24 14:04 | 30.15064 | -96.58450 | 25200 ft | 430 kts | 280° |
| 2026-04-24 14:04 | 30.15580 | -96.61857 | 25518 ft | 431 kts | 280° |
| 2026-04-24 14:04 | 30.16095 | -96.65267 | 25911 ft | 430 kts | 280° |
| 2026-04-24 14:05 | 30.16606 | -96.68658 | 26429 ft | 426 kts | 279° |
| 2026-04-24 14:05 | 30.17110 | -96.72010 | 27038 ft | 421 kts | 279° |
| 2026-04-24 14:05 | 30.17607 | -96.75322 | 27676 ft | 415 kts | 279° |
| 2026-04-24 14:05 | 30.18097 | -96.78585 | 28272 ft | 410 kts | 279° |
| 2026-04-24 14:06 | 30.18581 | -96.81823 | 28834 ft | 407 kts | 279° |
| 2026-04-24 14:06 | 30.19060 | -96.85030 | 29399 ft | 404 kts | 279° |
| 2026-04-24 14:06 | 30.19535 | -96.88214 | 29896 ft | 401 kts | 279° |
| 2026-04-24 14:06 | 30.20009 | -96.91398 | 29888 ft | 401 kts | 279° |
| 2026-04-24 14:07 | 30.20950 | -96.97735 | 29909 ft | 400 kts | 279° |
| 2026-04-24 14:07 | 30.21888 | -97.04067 | 29914 ft | 400 kts | 279° |
| 2026-04-24 14:08 | 30.22826 | -97.10406 | 29890 ft | 400 kts | 279° |
| 2026-04-24 14:08 | 30.23772 | -97.16745 | 29769 ft | 400 kts | 279° |
| 2026-04-24 14:09 | 30.24715 | -97.23076 | 29765 ft | 400 kts | 279° |
| 2026-04-24 14:09 | 30.25655 | -97.29413 | 29769 ft | 400 kts | 279° |
| 2026-04-24 14:10 | 30.26592 | -97.35754 | 29788 ft | 400 kts | 279° |
| 2026-04-24 14:10 | 30.27524 | -97.42088 | 29787 ft | 400 kts | 279° |
| 2026-04-24 14:11 | 30.28455 | -97.48434 | 29788 ft | 400 kts | 279° |
| 2026-04-24 14:12 | 30.29844 | -97.57949 | 29850 ft | 400 kts | 279° |
| 2026-04-24 14:12 | 30.30767 | -97.64293 | 29844 ft | 400 kts | 279° |
| 2026-04-24 14:13 | 30.31688 | -97.70646 | 29843 ft | 400 kts | 279° |
| 2026-04-24 14:13 | 30.32789 | -97.76963 | 29842 ft | 401 kts | 283° |
| 2026-04-24 14:14 | 30.34155 | -97.83215 | 29872 ft | 400 kts | 283° |
| 2026-04-24 14:14 | 30.36189 | -97.92593 | 29893 ft | 401 kts | 283° |
| 2026-04-24 14:15 | 30.37513 | -97.98861 | 29888 ft | 401 kts | 283° |
| 2026-04-24 14:15 | 30.38819 | -98.05089 | 29893 ft | 401 kts | 282° |
| 2026-04-24 14:16 | 30.40130 | -98.11360 | 29890 ft | 401 kts | 282° |
| 2026-04-24 14:17 | 30.42095 | -98.20781 | 29858 ft | 401 kts | 282° |
| 2026-04-24 14:17 | 30.44053 | -98.30209 | 29866 ft | 401 kts | 282° |
| 2026-04-24 14:18 | 30.45103 | -98.35485 | 29860 ft | 401 kts | 279° |
| 2026-04-24 14:18 | 30.45951 | -98.42925 | 29873 ft | 401 kts | 276° |
| 2026-04-24 14:19 | 30.46553 | -98.49354 | 29815 ft | 401 kts | 276° |
| 2026-04-24 14:19 | 30.47189 | -98.55775 | 29819 ft | 401 kts | 277° |
| 2026-04-24 14:20 | 30.47850 | -98.62193 | 29829 ft | 401 kts | 277° |
| 2026-04-24 14:20 | 30.48519 | -98.68613 | 29820 ft | 401 kts | 277° |
| 2026-04-24 14:21 | 30.49186 | -98.75021 | 29824 ft | 401 kts | 277° |
| 2026-04-24 14:21 | 30.49850 | -98.81441 | 29821 ft | 401 kts | 277° |
| 2026-04-24 14:22 | 30.50400 | -98.86783 | 29815 ft | 401 kts | 277° |
| 2026-04-24 14:23 | 30.51388 | -98.96430 | 29799 ft | 402 kts | 277° |
| 2026-04-24 14:23 | 30.52042 | -99.02861 | 29797 ft | 401 kts | 277° |
| 2026-04-24 14:24 | 30.52694 | -99.09293 | 29799 ft | 402 kts | 276° |
| 2026-04-24 14:24 | 30.53343 | -99.15736 | 29796 ft | 402 kts | 276° |
| 2026-04-24 14:25 | 30.53989 | -99.22186 | 29799 ft | 403 kts | 276° |
| 2026-04-24 14:25 | 30.54632 | -99.28640 | 29793 ft | 403 kts | 276° |
| 2026-04-24 14:26 | 30.55272 | -99.35091 | 29792 ft | 403 kts | 276° |
| 2026-04-24 14:26 | 30.55909 | -99.41548 | 29820 ft | 403 kts | 276° |
| 2026-04-24 14:27 | 30.56544 | -99.48006 | 29841 ft | 403 kts | 276° |
| 2026-04-24 14:27 | 30.57172 | -99.54428 | 29859 ft | 403 kts | 276° |
| 2026-04-24 14:28 | 30.57801 | -99.60901 | 29878 ft | 404 kts | 276° |
| 2026-04-24 14:28 | 30.58427 | -99.67373 | 29902 ft | 403 kts | 276° |
| 2026-04-24 14:29 | 30.59049 | -99.73841 | 29922 ft | 404 kts | 276° |
| 2026-04-24 14:29 | 30.60554 | -99.80081 | 29915 ft | 408 kts | 295° |
| 2026-04-24 14:30 | 30.64082 | -99.85303 | 29864 ft | 422 kts | 315° |
| 2026-04-24 14:30 | 30.68913 | -99.89253 | 29858 ft | 425 kts | 318° |
| 2026-04-24 14:31 | 30.73778 | -99.93130 | 29828 ft | 423 kts | 318° |
| 2026-04-24 14:31 | 30.78609 | -99.97031 | 29799 ft | 422 kts | 318° |
| 2026-04-24 14:32 | 30.83417 | -100.00952 | 29789 ft | 422 kts | 317° |
| 2026-04-24 14:32 | 30.88212 | -100.04877 | 29796 ft | 422 kts | 317° |
| 2026-04-24 14:33 | 30.93004 | -100.08805 | 29788 ft | 421 kts | 317° |
| 2026-04-24 14:33 | 30.97794 | -100.12734 | 29783 ft | 421 kts | 317° |
| 2026-04-24 14:34 | 31.02582 | -100.16667 | 29783 ft | 421 kts | 317° |
| 2026-04-24 14:34 | 31.07366 | -100.20601 | 29776 ft | 421 kts | 317° |
| 2026-04-24 14:35 | 31.12149 | -100.24540 | 29806 ft | 421 kts | 317° |
| 2026-04-24 14:35 | 31.16910 | -100.28464 | 29793 ft | 422 kts | 317° |
| 2026-04-24 14:36 | 31.21734 | -100.32447 | 29831 ft | 422 kts | 317° |
| 2026-04-24 14:36 | 31.26497 | -100.36384 | 29853 ft | 422 kts | 317° |
| 2026-04-24 14:37 | 31.31292 | -100.40353 | 29867 ft | 422 kts | 317° |
| 2026-04-24 14:37 | 31.35750 | -100.44681 | 29871 ft | 410 kts | 304° |
| 2026-04-24 14:38 | 31.38951 | -100.50108 | 29875 ft | 402 kts | 293° |
| 2026-04-24 14:38 | 31.41016 | -100.56152 | 29869 ft | 400 kts | 287° |
| 2026-04-24 14:39 | 31.42955 | -100.62266 | 29858 ft | 401 kts | 287° |
| 2026-04-24 14:39 | 31.44909 | -100.68395 | 29841 ft | 402 kts | 287° |
| 2026-04-24 14:40 | 31.46878 | -100.74533 | 29782 ft | 403 kts | 287° |
| 2026-04-24 14:40 | 31.47875 | -100.77641 | 28908 ft | 409 kts | 287° |
| 2026-04-24 14:40 | 31.48872 | -100.80746 | 28018 ft | 406 kts | 288° |
| 2026-04-24 14:40 | 31.49866 | -100.83844 | 27044 ft | 407 kts | 288° |
| 2026-04-24 14:41 | 31.50863 | -100.86955 | 26019 ft | 409 kts | 288° |
| 2026-04-24 14:41 | 31.51861 | -100.90071 | 25240 ft | 409 kts | 288° |
| 2026-04-24 14:41 | 31.52872 | -100.93241 | 24474 ft | 424 kts | 288° |
| 2026-04-24 14:41 | 31.53917 | -100.96518 | 23655 ft | 429 kts | 289° |
| 2026-04-24 14:42 | 31.54965 | -100.99788 | 22771 ft | 427 kts | 289° |
| 2026-04-24 14:42 | 31.56002 | -101.03030 | 21951 ft | 422 kts | 289° |
| 2026-04-24 14:42 | 31.57023 | -101.06232 | 21172 ft | 417 kts | 288° |
| 2026-04-24 14:42 | 31.58030 | -101.09394 | 20415 ft | 411 kts | 288° |
| 2026-04-24 14:43 | 31.59025 | -101.12520 | 19676 ft | 407 kts | 288° |
| 2026-04-24 14:43 | 31.60007 | -101.15612 | 18919 ft | 403 kts | 288° |
| 2026-04-24 14:43 | 31.60981 | -101.18680 | 18181 ft | 399 kts | 288° |
| 2026-04-24 14:43 | 31.61942 | -101.21710 | 17370 ft | 394 kts | 288° |
| 2026-04-24 14:44 | 31.62889 | -101.24699 | 16677 ft | 388 kts | 288° |
| 2026-04-24 14:44 | 31.63821 | -101.27646 | 15969 ft | 382 kts | 288° |
| 2026-04-24 14:44 | 31.64740 | -101.30552 | 15270 ft | 378 kts | 288° |
| 2026-04-24 14:44 | 31.65649 | -101.33431 | 14568 ft | 374 kts | 288° |
| 2026-04-24 14:45 | 31.66550 | -101.36286 | 13860 ft | 372 kts | 288° |
| 2026-04-24 14:45 | 31.67444 | -101.39122 | 13089 ft | 370 kts | 288° |
| 2026-04-24 14:45 | 31.68319 | -101.41903 | 12353 ft | 366 kts | 288° |
| 2026-04-24 14:45 | 31.69208 | -101.44731 | 11643 ft | 363 kts | 288° |
| 2026-04-24 14:46 | 31.70066 | -101.47461 | 11155 ft | 356 kts | 289° |
| 2026-04-24 14:46 | 31.70915 | -101.50162 | 10941 ft | 340 kts | 289° |
| 2026-04-24 14:46 | 31.71715 | -101.52706 | 10791 ft | 326 kts | 289° |
| 2026-04-24 14:46 | 31.72473 | -101.55121 | 10646 ft | 313 kts | 289° |
| 2026-04-24 14:47 | 31.73210 | -101.57472 | 10516 ft | 300 kts | 289° |
| 2026-04-24 14:47 | 31.73918 | -101.59732 | 10386 ft | 289 kts | 289° |
| 2026-04-24 14:47 | 31.74599 | -101.61909 | 10269 ft | 279 kts | 289° |
| 2026-04-24 14:47 | 31.75256 | -101.64011 | 10152 ft | 270 kts | 289° |
| 2026-04-24 14:48 | 31.75891 | -101.66045 | 10034 ft | 261 kts | 289° |
| 2026-04-24 14:48 | 31.76506 | -101.68012 | 9923 ft | 253 kts | 289° |
| 2026-04-24 14:48 | 31.77106 | -101.69934 | 9675 ft | 250 kts | 289° |
| 2026-04-24 14:48 | 31.77703 | -101.71851 | 9389 ft | 249 kts | 289° |
| 2026-04-24 14:49 | 31.78297 | -101.73754 | 9079 ft | 248 kts | 289° |
| 2026-04-24 14:49 | 31.78890 | -101.75658 | 8773 ft | 248 kts | 289° |
| 2026-04-24 14:49 | 31.79482 | -101.77560 | 8455 ft | 249 kts | 289° |
| 2026-04-24 14:49 | 31.80077 | -101.79471 | 8153 ft | 249 kts | 290° |
| 2026-04-24 14:50 | 31.80673 | -101.81389 | 7854 ft | 251 kts | 290° |
| 2026-04-24 14:50 | 31.81274 | -101.83324 | 7533 ft | 252 kts | 290° |
| 2026-04-24 14:50 | 31.81432 | -101.83832 | 7450 ft | 252 kts | 290° |
| 2026-04-24 14:50 | 31.82036 | -101.85775 | 7179 ft | 252 kts | 290° |
| 2026-04-24 14:51 | 31.82628 | -101.87683 | 7028 ft | 246 kts | 290° |
| 2026-04-24 14:51 | 31.83207 | -101.89547 | 6918 ft | 239 kts | 290° |
| 2026-04-24 14:51 | 31.83767 | -101.91353 | 6818 ft | 231 kts | 290° |
| 2026-04-24 14:51 | 31.84302 | -101.93080 | 6740 ft | 218 kts | 290° |
| 2026-04-24 14:52 | 31.84811 | -101.94726 | 6631 ft | 211 kts | 290° |
| 2026-04-24 14:52 | 31.85312 | -101.96332 | 6555 ft | 208 kts | 291° |
| 2026-04-24 14:52 | 31.85874 | -101.97891 | 6421 ft | 208 kts | 294° |
| 2026-04-24 14:52 | 31.86468 | -101.99455 | 6223 ft | 211 kts | 294° |
| 2026-04-24 14:53 | 31.87068 | -102.01038 | 5986 ft | 212 kts | 294° |
| 2026-04-24 14:53 | 31.87650 | -102.02579 | 5756 ft | 205 kts | 294° |
| 2026-04-24 14:53 | 31.88223 | -102.04105 | 5520 ft | 198 kts | 294° |
| 2026-04-24 14:53 | 31.88762 | -102.05545 | 5308 ft | 192 kts | 294° |
| 2026-04-24 14:54 | 31.89294 | -102.06964 | 5084 ft | 187 kts | 294° |
| 2026-04-24 14:54 | 31.89801 | -102.08321 | 4856 ft | 175 kts | 295° |
| 2026-04-24 14:54 | 31.90276 | -102.09597 | 4653 ft | 169 kts | 295° |
| 2026-04-24 14:54 | 31.90749 | -102.10866 | 4439 ft | 168 kts | 295° |
| 2026-04-24 14:55 | 31.91060 | -102.11695 | 4327 ft | 159 kts | 295° |
| 2026-04-24 14:55 | 31.91624 | -102.13209 | 4023 ft | 147 kts | 295° |
| 2026-04-24 14:55 | 31.92031 | -102.14301 | 3836 ft | 145 kts | 295° |
| 2026-04-24 14:55 | 31.92435 | -102.15385 | 3664 ft | 145 kts | 294° |
| 2026-04-24 14:56 | 31.92840 | -102.16483 | 3463 ft | 146 kts | 294° |
| 2026-04-24 14:56 | 31.93242 | -102.17581 | 3218 ft | 144 kts | 294° |
| 2026-04-24 14:56 | 31.93638 | -102.18650 | 3020 ft | 142 kts | 295° |
| 2026-04-24 14:56 | 31.94048 | -102.19709 | 2878 ft | 139 kts | 294° |
| 2026-04-24 14:57 | 31.94389 | -102.20572 | 2900 ft | 66 kts | 157° |
| 2026-04-24 14:57 | 31.94474 | -102.20597 | 2869 ft | 3 kts | 236° |
| 2026-04-24 14:57 | 31.94472 | -102.20598 | 2869 ft | 1 kts | 234° |
| 2026-04-24 14:57 | 31.94463 | -102.20606 | 2869 ft | 3 kts | 213° |
| 2026-04-24 14:58 | 31.94433 | -102.20609 | 2868 ft | 6 kts | 177° |
| 2026-04-24 14:58 | 31.94382 | -102.20604 | 2866 ft | 8 kts | 173° |
| 2026-04-24 14:58 | 31.94319 | -102.20594 | 2866 ft | 10 kts | 172° |
| 2026-04-24 14:58 | 31.94253 | -102.20585 | 2867 ft | 9 kts | 174° |
| 2026-04-24 14:59 | 31.94188 | -102.20578 | 2868 ft | 9 kts | 174° |
| 2026-04-24 14:59 | 31.94123 | -102.20570 | 2868 ft | 10 kts | 174° |
| 2026-04-24 14:59 | 31.94052 | -102.20563 | 2868 ft | 11 kts | 175° |
| 2026-04-24 14:59 | 31.93976 | -102.20555 | 2868 ft | 11 kts | 175° |
| 2026-04-24 15:00 | 31.93894 | -102.20547 | 2868 ft | 12 kts | 175° |
| 2026-04-24 15:00 | 31.93812 | -102.20542 | 2868 ft | 12 kts | 188° |
| 2026-04-24 15:00 | 31.93777 | -102.20618 | 2868 ft | 11 kts | 266° |
| 2026-04-24 15:00 | 31.93774 | -102.20667 | 2868 ft | 4 kts | 265° |
| 2026-04-24 15:01 | 31.93772 | -102.20694 | 2868 ft | 2 kts | 265° |
| 2026-04-24 15:01 | 31.93772 | -102.20700 | 2868 ft | 0 kts | 265° |